X  Close Metar Aviation Weather Data        LYNI Nis Airport
Temperature
7°C Temperature
5°C Dewpoint
87% Humidity



Wind
1 M/S
2 MPH
4 KM/H
2 KTS



-1°
VRB
Current Conditions

Mostly Cloudy Mostly Cloudy
Pressure 1007 (hPa) - 29.75 (inHg)
Visibility 6 (mile) - 10 (km)
Airport
Airport-code LYNI

Location: Nis Airport
Distance: 75 (km)

Metar:
METAR LYNI 180700Z VRB02KT 9999 FEW008 BKN030 BKN040 07/05 Q1007 NOSIG

Time: 18-04-2024 09:00 CEST